sensor_id;sensor_type;location;lat;lon;timestamp;P1;durP1;ratioP1;P2;durP2;ratioP2
5052;SDS011;2545;50.892;5.740;2023-03-17T00:01:31;5.60;;;2.43;;
5052;SDS011;2545;50.892;5.740;2023-03-17T00:03:56;4.73;;;2.60;;
5052;SDS011;2545;50.892;5.740;2023-03-17T00:06:27;4.40;;;2.00;;
5052;SDS011;2545;50.892;5.740;2023-03-17T00:08:54;2.60;;;1.80;;
5052;SDS011;2545;50.892;5.740;2023-03-17T00:11:22;2.73;;;1.90;;
5052;SDS011;2545;50.892;5.740;2023-03-17T00:13:48;2.77;;;1.83;;
5052;SDS011;2545;50.892;5.740;2023-03-17T00:16:20;2.40;;;1.60;;
5052;SDS011;2545;50.892;5.740;2023-03-17T00:18:49;3.67;;;1.87;;
5052;SDS011;2545;50.892;5.740;2023-03-17T00:21:16;3.53;;;1.67;;
5052;SDS011;2545;50.892;5.740;2023-03-17T00:23:49;3.93;;;1.90;;
5052;SDS011;2545;50.892;5.740;2023-03-17T00:26:15;4.97;;;1.93;;
5052;SDS011;2545;50.892;5.740;2023-03-17T00:28:41;3.20;;;1.67;;
5052;SDS011;2545;50.892;5.740;2023-03-17T00:31:12;4.83;;;1.80;;
5052;SDS011;2545;50.892;5.740;2023-03-17T00:33:42;3.73;;;2.20;;
5052;SDS011;2545;50.892;5.740;2023-03-17T00:36:13;4.83;;;1.63;;
5052;SDS011;2545;50.892;5.740;2023-03-17T00:38:41;3.23;;;1.60;;
5052;SDS011;2545;50.892;5.740;2023-03-17T00:41:08;2.03;;;1.60;;
5052;SDS011;2545;50.892;5.740;2023-03-17T00:43:36;3.73;;;1.87;;
5052;SDS011;2545;50.892;5.740;2023-03-17T00:46:08;2.40;;;1.60;;
5052;SDS011;2545;50.892;5.740;2023-03-17T00:48:38;1.97;;;1.63;;
5052;SDS011;2545;50.892;5.740;2023-03-17T00:51:05;7.30;;;1.70;;
5052;SDS011;2545;50.892;5.740;2023-03-17T00:53:31;3.53;;;2.00;;
5052;SDS011;2545;50.892;5.740;2023-03-17T00:55:56;3.00;;;1.80;;
5052;SDS011;2545;50.892;5.740;2023-03-17T01:00:55;2.43;;;1.90;;
5052;SDS011;2545;50.892;5.740;2023-03-17T01:03:21;4.30;;;2.23;;
5052;SDS011;2545;50.892;5.740;2023-03-17T01:05:47;2.90;;;1.63;;
5052;SDS011;2545;50.892;5.740;2023-03-17T01:08:13;2.13;;;1.60;;
5052;SDS011;2545;50.892;5.740;2023-03-17T01:10:40;3.20;;;1.90;;
5052;SDS011;2545;50.892;5.740;2023-03-17T01:13:06;3.17;;;1.67;;
5052;SDS011;2545;50.892;5.740;2023-03-17T01:15:35;2.03;;;1.83;;
5052;SDS011;2545;50.892;5.740;2023-03-17T01:18:03;3.33;;;2.03;;
5052;SDS011;2545;50.892;5.740;2023-03-17T01:20:30;2.57;;;1.83;;
5052;SDS011;2545;50.892;5.740;2023-03-17T01:22:57;2.87;;;2.10;;
5052;SDS011;2545;50.892;5.740;2023-03-17T01:25:22;7.10;;;1.70;;
5052;SDS011;2545;50.892;5.740;2023-03-17T01:27:48;10.93;;;2.30;;
5052;SDS011;2545;50.892;5.740;2023-03-17T01:30:30;2.83;;;1.63;;
5052;SDS011;2545;50.892;5.740;2023-03-17T01:32:58;2.93;;;1.90;;
5052;SDS011;2545;50.892;5.740;2023-03-17T01:35:25;2.87;;;1.80;;
5052;SDS011;2545;50.892;5.740;2023-03-17T01:37:53;11.00;;;1.90;;
5052;SDS011;2545;50.892;5.740;2023-03-17T01:40:22;3.40;;;2.10;;
5052;SDS011;2545;50.892;5.740;2023-03-17T01:43:00;1.90;;;1.60;;
5052;SDS011;2545;50.892;5.740;2023-03-17T01:48:37;1.70;;;1.40;;
5052;SDS011;2545;50.892;5.740;2023-03-17T01:51:04;3.67;;;2.37;;
5052;SDS011;2545;50.892;5.740;2023-03-17T01:53:33;3.40;;;2.13;;
5052;SDS011;2545;50.892;5.740;2023-03-17T01:55:59;5.27;;;2.47;;
5052;SDS011;2545;50.892;5.740;2023-03-17T01:58:27;2.43;;;1.80;;
5052;SDS011;2545;50.892;5.740;2023-03-17T02:00:53;2.80;;;1.90;;
5052;SDS011;2545;50.892;5.740;2023-03-17T02:03:19;1.70;;;1.47;;
5052;SDS011;2545;50.892;5.740;2023-03-17T02:05:45;3.27;;;2.20;;
5052;SDS011;2545;50.892;5.740;2023-03-17T02:08:14;6.00;;;1.57;;
5052;SDS011;2545;50.892;5.740;2023-03-17T02:10:40;2.03;;;1.73;;
5052;SDS011;2545;50.892;5.740;2023-03-17T02:13:07;2.47;;;1.90;;
5052;SDS011;2545;50.892;5.740;2023-03-17T02:15:42;5.30;;;1.90;;
5052;SDS011;2545;50.892;5.740;2023-03-17T02:18:10;2.33;;;1.73;;
5052;SDS011;2545;50.892;5.740;2023-03-17T02:23:04;3.10;;;2.00;;
5052;SDS011;2545;50.892;5.740;2023-03-17T02:25:30;2.83;;;2.00;;
5052;SDS011;2545;50.892;5.740;2023-03-17T02:28:00;6.93;;;2.30;;
5052;SDS011;2545;50.892;5.740;2023-03-17T02:30:32;1.93;;;1.73;;
5052;SDS011;2545;50.892;5.740;2023-03-17T02:32:59;10.30;;;2.13;;
5052;SDS011;2545;50.892;5.740;2023-03-17T02:35:25;2.53;;;1.70;;
5052;SDS011;2545;50.892;5.740;2023-03-17T02:37:51;7.87;;;2.10;;
5052;SDS011;2545;50.892;5.740;2023-03-17T02:40:16;4.20;;;1.90;;
5052;SDS011;2545;50.892;5.740;2023-03-17T02:42:42;5.47;;;2.70;;
5052;SDS011;2545;50.892;5.740;2023-03-17T02:45:08;3.40;;;2.10;;
5052;SDS011;2545;50.892;5.740;2023-03-17T02:47:35;2.20;;;1.93;;
5052;SDS011;2545;50.892;5.740;2023-03-17T02:50:01;2.13;;;1.93;;
5052;SDS011;2545;50.892;5.740;2023-03-17T02:52:26;2.03;;;1.70;;
5052;SDS011;2545;50.892;5.740;2023-03-17T02:54:51;1.63;;;1.53;;
5052;SDS011;2545;50.892;5.740;2023-03-17T02:57:17;3.10;;;2.10;;
5052;SDS011;2545;50.892;5.740;2023-03-17T02:59:43;2.33;;;1.87;;
5052;SDS011;2545;50.892;5.740;2023-03-17T03:02:09;4.43;;;2.07;;
5052;SDS011;2545;50.892;5.740;2023-03-17T03:04:35;2.57;;;1.90;;
5052;SDS011;2545;50.892;5.740;2023-03-17T03:07:01;3.93;;;1.90;;
5052;SDS011;2545;50.892;5.740;2023-03-17T03:09:28;4.53;;;2.00;;
5052;SDS011;2545;50.892;5.740;2023-03-17T03:11:53;3.40;;;2.10;;
5052;SDS011;2545;50.892;5.740;2023-03-17T03:14:19;4.10;;;2.20;;
5052;SDS011;2545;50.892;5.740;2023-03-17T03:16:44;3.00;;;1.80;;
5052;SDS011;2545;50.892;5.740;2023-03-17T03:19:10;2.73;;;1.93;;
5052;SDS011;2545;50.892;5.740;2023-03-17T03:21:36;2.20;;;1.90;;
5052;SDS011;2545;50.892;5.740;2023-03-17T03:24:01;2.27;;;1.87;;
5052;SDS011;2545;50.892;5.740;2023-03-17T03:26:27;3.27;;;1.70;;
5052;SDS011;2545;50.892;5.740;2023-03-17T03:28:53;5.60;;;2.10;;
5052;SDS011;2545;50.892;5.740;2023-03-17T03:31:18;3.60;;;1.80;;
5052;SDS011;2545;50.892;5.740;2023-03-17T03:33:44;3.60;;;1.93;;
5052;SDS011;2545;50.892;5.740;2023-03-17T03:36:09;3.70;;;2.10;;
5052;SDS011;2545;50.892;5.740;2023-03-17T03:38:35;10.93;;;2.50;;
5052;SDS011;2545;50.892;5.740;2023-03-17T03:41:00;3.33;;;1.70;;
5052;SDS011;2545;50.892;5.740;2023-03-17T03:43:26;2.10;;;1.80;;
5052;SDS011;2545;50.892;5.740;2023-03-17T03:45:51;3.60;;;2.07;;
5052;SDS011;2545;50.892;5.740;2023-03-17T03:48:18;2.80;;;1.97;;
5052;SDS011;2545;50.892;5.740;2023-03-17T03:50:45;3.37;;;2.23;;
5052;SDS011;2545;50.892;5.740;2023-03-17T03:53:11;3.37;;;1.97;;
5052;SDS011;2545;50.892;5.740;2023-03-17T03:55:37;4.63;;;2.43;;
5052;SDS011;2545;50.892;5.740;2023-03-17T03:58:02;2.70;;;2.17;;
5052;SDS011;2545;50.892;5.740;2023-03-17T04:00:28;3.10;;;1.90;;
5052;SDS011;2545;50.892;5.740;2023-03-17T04:02:53;3.53;;;2.20;;
5052;SDS011;2545;50.892;5.740;2023-03-17T04:05:18;3.20;;;1.80;;
5052;SDS011;2545;50.892;5.740;2023-03-17T04:07:44;2.47;;;2.00;;
5052;SDS011;2545;50.892;5.740;2023-03-17T04:10:12;2.40;;;2.00;;
5052;SDS011;2545;50.892;5.740;2023-03-17T04:12:39;2.27;;;1.87;;
5052;SDS011;2545;50.892;5.740;2023-03-17T04:15:05;4.57;;;2.40;;
5052;SDS011;2545;50.892;5.740;2023-03-17T04:17:32;2.10;;;1.90;;
5052;SDS011;2545;50.892;5.740;2023-03-17T04:19:58;5.63;;;2.10;;
5052;SDS011;2545;50.892;5.740;2023-03-17T04:22:24;3.20;;;2.13;;
5052;SDS011;2545;50.892;5.740;2023-03-17T04:24:49;3.30;;;2.00;;
5052;SDS011;2545;50.892;5.740;2023-03-17T04:27:15;3.60;;;1.87;;
5052;SDS011;2545;50.892;5.740;2023-03-17T04:29:41;3.37;;;2.30;;
5052;SDS011;2545;50.892;5.740;2023-03-17T04:32:08;3.47;;;1.73;;
5052;SDS011;2545;50.892;5.740;2023-03-17T04:34:35;3.20;;;1.70;;
5052;SDS011;2545;50.892;5.740;2023-03-17T04:37:00;3.40;;;2.27;;
5052;SDS011;2545;50.892;5.740;2023-03-17T04:39:26;3.70;;;1.67;;
5052;SDS011;2545;50.892;5.740;2023-03-17T04:41:51;3.23;;;2.17;;
5052;SDS011;2545;50.892;5.740;2023-03-17T04:44:17;7.00;;;2.17;;
5052;SDS011;2545;50.892;5.740;2023-03-17T04:46:42;7.33;;;2.07;;
5052;SDS011;2545;50.892;5.740;2023-03-17T04:49:07;8.27;;;2.13;;
5052;SDS011;2545;50.892;5.740;2023-03-17T04:51:33;3.53;;;2.40;;
5052;SDS011;2545;50.892;5.740;2023-03-17T04:54:00;3.40;;;1.90;;
5052;SDS011;2545;50.892;5.740;2023-03-17T04:56:26;4.30;;;2.07;;
5052;SDS011;2545;50.892;5.740;2023-03-17T04:58:51;4.07;;;2.40;;
5052;SDS011;2545;50.892;5.740;2023-03-17T05:01:17;6.17;;;2.23;;
5052;SDS011;2545;50.892;5.740;2023-03-17T05:03:42;3.80;;;2.20;;
5052;SDS011;2545;50.892;5.740;2023-03-17T05:06:08;3.13;;;2.17;;
5052;SDS011;2545;50.892;5.740;2023-03-17T05:08:33;6.00;;;1.90;;
5052;SDS011;2545;50.892;5.740;2023-03-17T05:10:58;3.87;;;2.30;;
5052;SDS011;2545;50.892;5.740;2023-03-17T05:13:25;3.20;;;2.20;;
5052;SDS011;2545;50.892;5.740;2023-03-17T05:15:52;2.97;;;2.47;;
5052;SDS011;2545;50.892;5.740;2023-03-17T05:18:20;2.73;;;2.07;;
5052;SDS011;2545;50.892;5.740;2023-03-17T05:20:47;2.90;;;2.07;;
5052;SDS011;2545;50.892;5.740;2023-03-17T05:23:12;5.17;;;2.27;;
5052;SDS011;2545;50.892;5.740;2023-03-17T05:25:37;3.70;;;2.60;;
5052;SDS011;2545;50.892;5.740;2023-03-17T05:28:04;6.67;;;2.30;;
5052;SDS011;2545;50.892;5.740;2023-03-17T05:30:30;3.30;;;2.07;;
5052;SDS011;2545;50.892;5.740;2023-03-17T05:32:56;3.90;;;2.20;;
5052;SDS011;2545;50.892;5.740;2023-03-17T05:35:22;14.00;;;2.50;;
5052;SDS011;2545;50.892;5.740;2023-03-17T05:37:47;3.20;;;2.10;;
5052;SDS011;2545;50.892;5.740;2023-03-17T05:40:13;6.97;;;2.50;;
5052;SDS011;2545;50.892;5.740;2023-03-17T05:42:39;5.10;;;2.10;;
5052;SDS011;2545;50.892;5.740;2023-03-17T05:45:05;3.83;;;1.97;;
5052;SDS011;2545;50.892;5.740;2023-03-17T05:47:31;6.70;;;2.43;;
5052;SDS011;2545;50.892;5.740;2023-03-17T05:49:58;5.90;;;2.60;;
5052;SDS011;2545;50.892;5.740;2023-03-17T05:52:24;4.43;;;2.13;;
5052;SDS011;2545;50.892;5.740;2023-03-17T05:54:49;3.13;;;2.27;;
5052;SDS011;2545;50.892;5.740;2023-03-17T05:57:17;5.63;;;1.90;;
5052;SDS011;2545;50.892;5.740;2023-03-17T05:59:42;4.60;;;2.30;;
5052;SDS011;2545;50.892;5.740;2023-03-17T06:02:08;4.47;;;2.30;;
5052;SDS011;2545;50.892;5.740;2023-03-17T06:04:35;6.30;;;2.43;;
5052;SDS011;2545;50.892;5.740;2023-03-17T06:07:00;7.10;;;2.47;;
5052;SDS011;2545;50.892;5.740;2023-03-17T06:09:26;2.90;;;2.27;;
5052;SDS011;2545;50.892;5.740;2023-03-17T06:11:52;4.47;;;2.10;;
5052;SDS011;2545;50.892;5.740;2023-03-17T06:14:17;6.10;;;2.27;;
5052;SDS011;2545;50.892;5.740;2023-03-17T06:16:43;7.33;;;2.27;;
5052;SDS011;2545;50.892;5.740;2023-03-17T06:19:08;11.97;;;2.67;;
5052;SDS011;2545;50.892;5.740;2023-03-17T06:21:34;4.07;;;2.43;;
5052;SDS011;2545;50.892;5.740;2023-03-17T06:23:59;3.87;;;2.23;;
5052;SDS011;2545;50.892;5.740;2023-03-17T06:26:25;6.70;;;2.40;;
5052;SDS011;2545;50.892;5.740;2023-03-17T06:28:51;3.23;;;2.47;;
5052;SDS011;2545;50.892;5.740;2023-03-17T06:31:16;3.40;;;2.40;;
5052;SDS011;2545;50.892;5.740;2023-03-17T06:33:41;11.10;;;2.50;;
5052;SDS011;2545;50.892;5.740;2023-03-17T06:36:07;11.20;;;2.60;;
5052;SDS011;2545;50.892;5.740;2023-03-17T06:38:33;5.40;;;2.13;;
5052;SDS011;2545;50.892;5.740;2023-03-17T06:40:58;3.70;;;2.40;;
5052;SDS011;2545;50.892;5.740;2023-03-17T06:43:24;2.93;;;2.23;;
5052;SDS011;2545;50.892;5.740;2023-03-17T06:45:49;4.00;;;2.57;;
5052;SDS011;2545;50.892;5.740;2023-03-17T06:48:15;4.87;;;2.20;;
5052;SDS011;2545;50.892;5.740;2023-03-17T06:50:40;5.13;;;2.77;;
5052;SDS011;2545;50.892;5.740;2023-03-17T06:53:06;5.17;;;2.00;;
5052;SDS011;2545;50.892;5.740;2023-03-17T06:55:31;2.50;;;2.07;;
5052;SDS011;2545;50.892;5.740;2023-03-17T06:57:57;3.37;;;2.20;;
5052;SDS011;2545;50.892;5.740;2023-03-17T07:00:24;5.13;;;2.40;;
5052;SDS011;2545;50.892;5.740;2023-03-17T07:02:51;3.23;;;2.40;;
5052;SDS011;2545;50.892;5.740;2023-03-17T07:05:16;5.67;;;2.40;;
5052;SDS011;2545;50.892;5.740;2023-03-17T07:07:42;3.50;;;2.03;;
5052;SDS011;2545;50.892;5.740;2023-03-17T07:10:08;6.00;;;2.30;;
5052;SDS011;2545;50.892;5.740;2023-03-17T07:12:35;4.03;;;2.27;;
5052;SDS011;2545;50.892;5.740;2023-03-17T07:15:01;5.90;;;2.57;;
5052;SDS011;2545;50.892;5.740;2023-03-17T07:17:27;4.00;;;2.47;;
5052;SDS011;2545;50.892;5.740;2023-03-17T07:19:54;19.00;;;2.67;;
5052;SDS011;2545;50.892;5.740;2023-03-17T07:22:19;5.13;;;2.83;;
5052;SDS011;2545;50.892;5.740;2023-03-17T07:24:45;5.10;;;2.90;;
5052;SDS011;2545;50.892;5.740;2023-03-17T07:27:12;6.20;;;2.47;;
5052;SDS011;2545;50.892;5.740;2023-03-17T07:29:38;7.07;;;3.10;;
5052;SDS011;2545;50.892;5.740;2023-03-17T07:32:03;3.20;;;2.30;;
5052;SDS011;2545;50.892;5.740;2023-03-17T07:34:31;3.17;;;2.40;;
5052;SDS011;2545;50.892;5.740;2023-03-17T07:36:56;5.73;;;2.70;;
5052;SDS011;2545;50.892;5.740;2023-03-17T07:39:21;4.00;;;2.70;;
5052;SDS011;2545;50.892;5.740;2023-03-17T07:41:47;6.33;;;2.43;;
5052;SDS011;2545;50.892;5.740;2023-03-17T07:44:16;6.70;;;2.50;;
5052;SDS011;2545;50.892;5.740;2023-03-17T07:46:43;6.03;;;2.93;;
5052;SDS011;2545;50.892;5.740;2023-03-17T07:49:10;4.93;;;3.00;;
5052;SDS011;2545;50.892;5.740;2023-03-17T07:51:36;6.20;;;2.67;;
5052;SDS011;2545;50.892;5.740;2023-03-17T07:54:03;4.70;;;2.60;;
5052;SDS011;2545;50.892;5.740;2023-03-17T07:56:30;3.93;;;2.50;;
5052;SDS011;2545;50.892;5.740;2023-03-17T07:58:56;4.97;;;2.77;;
5052;SDS011;2545;50.892;5.740;2023-03-17T08:01:23;4.30;;;2.80;;
5052;SDS011;2545;50.892;5.740;2023-03-17T08:03:49;6.17;;;2.90;;
5052;SDS011;2545;50.892;5.740;2023-03-17T08:06:15;15.87;;;2.90;;
5052;SDS011;2545;50.892;5.740;2023-03-17T08:08:40;6.27;;;2.90;;
5052;SDS011;2545;50.892;5.740;2023-03-17T08:11:06;3.23;;;2.50;;
5052;SDS011;2545;50.892;5.740;2023-03-17T08:13:32;2.57;;;2.13;;
5052;SDS011;2545;50.892;5.740;2023-03-17T08:15:58;5.60;;;2.70;;
5052;SDS011;2545;50.892;5.740;2023-03-17T08:18:24;4.33;;;2.63;;
5052;SDS011;2545;50.892;5.740;2023-03-17T08:20:50;8.20;;;3.07;;
5052;SDS011;2545;50.892;5.740;2023-03-17T08:23:16;3.77;;;2.60;;
5052;SDS011;2545;50.892;5.740;2023-03-17T08:25:42;4.30;;;2.77;;
5052;SDS011;2545;50.892;5.740;2023-03-17T08:28:08;4.30;;;2.67;;
5052;SDS011;2545;50.892;5.740;2023-03-17T08:30:34;5.50;;;2.83;;
5052;SDS011;2545;50.892;5.740;2023-03-17T08:33:01;6.00;;;2.93;;
5052;SDS011;2545;50.892;5.740;2023-03-17T08:35:27;3.33;;;2.60;;
5052;SDS011;2545;50.892;5.740;2023-03-17T08:37:52;5.37;;;3.00;;
5052;SDS011;2545;50.892;5.740;2023-03-17T08:40:18;6.50;;;3.03;;
5052;SDS011;2545;50.892;5.740;2023-03-17T08:42:44;6.33;;;3.20;;
5052;SDS011;2545;50.892;5.740;2023-03-17T08:45:11;9.50;;;2.90;;
5052;SDS011;2545;50.892;5.740;2023-03-17T08:47:37;5.13;;;2.27;;
5052;SDS011;2545;50.892;5.740;2023-03-17T08:50:04;5.83;;;2.47;;
5052;SDS011;2545;50.892;5.740;2023-03-17T08:52:34;3.10;;;2.50;;
5052;SDS011;2545;50.892;5.740;2023-03-17T08:55:00;4.30;;;2.70;;
5052;SDS011;2545;50.892;5.740;2023-03-17T08:57:26;3.93;;;2.70;;
5052;SDS011;2545;50.892;5.740;2023-03-17T08:59:52;5.43;;;2.60;;
5052;SDS011;2545;50.892;5.740;2023-03-17T09:02:17;3.53;;;2.67;;
5052;SDS011;2545;50.892;5.740;2023-03-17T09:04:43;5.83;;;2.70;;
5052;SDS011;2545;50.892;5.740;2023-03-17T09:07:08;10.93;;;2.47;;
5052;SDS011;2545;50.892;5.740;2023-03-17T09:09:34;4.00;;;2.10;;
5052;SDS011;2545;50.892;5.740;2023-03-17T09:12:01;3.70;;;2.73;;
5052;SDS011;2545;50.892;5.740;2023-03-17T09:14:29;8.10;;;2.40;;
5052;SDS011;2545;50.892;5.740;2023-03-17T09:16:54;4.30;;;2.30;;
5052;SDS011;2545;50.892;5.740;2023-03-17T09:19:20;5.23;;;2.40;;
5052;SDS011;2545;50.892;5.740;2023-03-17T09:21:46;4.93;;;3.10;;
5052;SDS011;2545;50.892;5.740;2023-03-17T09:24:12;7.00;;;2.90;;
5052;SDS011;2545;50.892;5.740;2023-03-17T09:26:37;3.40;;;2.50;;
5052;SDS011;2545;50.892;5.740;2023-03-17T09:29:03;4.53;;;2.90;;
5052;SDS011;2545;50.892;5.740;2023-03-17T09:31:29;5.13;;;2.90;;
5052;SDS011;2545;50.892;5.740;2023-03-17T09:33:55;7.93;;;2.70;;
5052;SDS011;2545;50.892;5.740;2023-03-17T09:36:20;4.67;;;2.63;;
5052;SDS011;2545;50.892;5.740;2023-03-17T09:38:45;4.30;;;2.80;;
5052;SDS011;2545;50.892;5.740;2023-03-17T09:44:00;4.27;;;2.17;;
5052;SDS011;2545;50.892;5.740;2023-03-17T09:47:03;4.83;;;2.43;;
5052;SDS011;2545;50.892;5.740;2023-03-17T09:49:44;5.67;;;2.50;;
5052;SDS011;2545;50.892;5.740;2023-03-17T09:52:14;4.77;;;3.00;;
5052;SDS011;2545;50.892;5.740;2023-03-17T09:54:42;3.97;;;2.50;;
5052;SDS011;2545;50.892;5.740;2023-03-17T09:59:47;5.23;;;2.70;;
5052;SDS011;2545;50.892;5.740;2023-03-17T10:02:29;4.03;;;2.60;;
5052;SDS011;2545;50.892;5.740;2023-03-17T10:04:56;3.33;;;2.40;;
5052;SDS011;2545;50.892;5.740;2023-03-17T10:07:24;4.40;;;2.43;;
5052;SDS011;2545;50.892;5.740;2023-03-17T10:17:25;5.13;;;2.33;;
5052;SDS011;2545;50.892;5.740;2023-03-17T10:20:07;3.63;;;2.27;;
5052;SDS011;2545;50.892;5.740;2023-03-17T10:25:19;4.30;;;2.30;;
5052;SDS011;2545;50.892;5.740;2023-03-17T10:27:54;5.30;;;2.90;;
5052;SDS011;2545;50.892;5.740;2023-03-17T10:30:24;7.63;;;2.80;;
5052;SDS011;2545;50.892;5.740;2023-03-17T10:32:50;7.13;;;2.80;;
5052;SDS011;2545;50.892;5.740;2023-03-17T10:35:17;6.73;;;2.60;;
5052;SDS011;2545;50.892;5.740;2023-03-17T10:37:45;4.87;;;2.73;;
5052;SDS011;2545;50.892;5.740;2023-03-17T10:40:24;4.97;;;2.63;;
5052;SDS011;2545;50.892;5.740;2023-03-17T10:43:05;7.57;;;3.07;;
5052;SDS011;2545;50.892;5.740;2023-03-17T10:45:36;6.80;;;2.80;;
5052;SDS011;2545;50.892;5.740;2023-03-17T10:48:08;9.03;;;2.70;;
5052;SDS011;2545;50.892;5.740;2023-03-17T10:50:35;5.13;;;3.20;;
5052;SDS011;2545;50.892;5.740;2023-03-17T10:55:31;5.90;;;2.50;;
5052;SDS011;2545;50.892;5.740;2023-03-17T10:58:13;3.90;;;2.67;;
5052;SDS011;2545;50.892;5.740;2023-03-17T11:00:58;7.63;;;2.53;;
5052;SDS011;2545;50.892;5.740;2023-03-17T11:03:39;5.33;;;2.50;;
5052;SDS011;2545;50.892;5.740;2023-03-17T11:06:06;8.27;;;2.70;;
5052;SDS011;2545;50.892;5.740;2023-03-17T11:08:55;8.53;;;2.90;;
5052;SDS011;2545;50.892;5.740;2023-03-17T11:13:50;5.33;;;3.03;;
5052;SDS011;2545;50.892;5.740;2023-03-17T11:16:25;9.67;;;2.27;;
5052;SDS011;2545;50.892;5.740;2023-03-17T11:18:51;4.93;;;2.40;;
5052;SDS011;2545;50.892;5.740;2023-03-17T11:21:25;12.43;;;2.40;;
5052;SDS011;2545;50.892;5.740;2023-03-17T11:26:55;5.10;;;2.77;;
5052;SDS011;2545;50.892;5.740;2023-03-17T11:32:37;6.10;;;2.80;;
5052;SDS011;2545;50.892;5.740;2023-03-17T11:37:59;5.50;;;2.57;;
5052;SDS011;2545;50.892;5.740;2023-03-17T11:46:14;4.33;;;2.80;;
5052;SDS011;2545;50.892;5.740;2023-03-17T11:48:45;6.23;;;2.47;;
5052;SDS011;2545;50.892;5.740;2023-03-17T11:51:21;6.40;;;2.63;;
5052;SDS011;2545;50.892;5.740;2023-03-17T11:59:12;6.43;;;2.70;;
5052;SDS011;2545;50.892;5.740;2023-03-17T12:01:43;5.30;;;2.67;;
5052;SDS011;2545;50.892;5.740;2023-03-17T12:04:21;10.27;;;3.30;;
5052;SDS011;2545;50.892;5.740;2023-03-17T12:06:57;4.03;;;2.63;;
5052;SDS011;2545;50.892;5.740;2023-03-17T12:09:43;6.83;;;2.80;;
5052;SDS011;2545;50.892;5.740;2023-03-17T12:12:12;5.83;;;2.83;;
5052;SDS011;2545;50.892;5.740;2023-03-17T12:14:44;5.93;;;2.97;;
5052;SDS011;2545;50.892;5.740;2023-03-17T12:31:05;6.07;;;2.83;;
5052;SDS011;2545;50.892;5.740;2023-03-17T12:33:39;7.33;;;2.70;;
5052;SDS011;2545;50.892;5.740;2023-03-17T12:36:12;8.30;;;2.87;;
5052;SDS011;2545;50.892;5.740;2023-03-17T12:38:49;6.47;;;2.90;;
5052;SDS011;2545;50.892;5.740;2023-03-17T12:44:23;5.40;;;2.13;;
5052;SDS011;2545;50.892;5.740;2023-03-17T12:53:02;5.70;;;2.70;;
5052;SDS011;2545;50.892;5.740;2023-03-17T12:55:33;5.33;;;2.37;;
5052;SDS011;2545;50.892;5.740;2023-03-17T12:58:04;6.20;;;2.20;;
5052;SDS011;2545;50.892;5.740;2023-03-17T13:00:47;3.83;;;2.13;;
5052;SDS011;2545;50.892;5.740;2023-03-17T13:03:25;6.53;;;2.20;;
5052;SDS011;2545;50.892;5.740;2023-03-17T13:06:00;4.87;;;2.60;;
5052;SDS011;2545;50.892;5.740;2023-03-17T13:08:30;6.03;;;2.30;;
5052;SDS011;2545;50.892;5.740;2023-03-17T13:17:04;4.43;;;2.57;;
5052;SDS011;2545;50.892;5.740;2023-03-17T13:20:08;5.30;;;2.40;;
5052;SDS011;2545;50.892;5.740;2023-03-17T13:25:33;4.27;;;2.17;;
5052;SDS011;2545;50.892;5.740;2023-03-17T13:28:26;4.77;;;2.60;;
5052;SDS011;2545;50.892;5.740;2023-03-17T13:30:56;3.13;;;2.03;;
5052;SDS011;2545;50.892;5.740;2023-03-17T13:33:29;9.03;;;2.37;;
5052;SDS011;2545;50.892;5.740;2023-03-17T13:38:31;7.47;;;2.20;;
5052;SDS011;2545;50.892;5.740;2023-03-17T13:44:06;5.47;;;2.10;;
5052;SDS011;2545;50.892;5.740;2023-03-17T13:46:41;9.10;;;2.53;;
5052;SDS011;2545;50.892;5.740;2023-03-17T13:51:41;3.80;;;2.40;;
5052;SDS011;2545;50.892;5.740;2023-03-17T13:54:13;5.47;;;2.60;;
5052;SDS011;2545;50.892;5.740;2023-03-17T13:56:53;9.30;;;2.67;;
5052;SDS011;2545;50.892;5.740;2023-03-17T13:59:20;3.50;;;2.40;;
5052;SDS011;2545;50.892;5.740;2023-03-17T14:01:58;3.97;;;1.87;;
5052;SDS011;2545;50.892;5.740;2023-03-17T14:05:16;5.23;;;2.33;;
5052;SDS011;2545;50.892;5.740;2023-03-17T14:07:17;7.53;;;2.87;;
5052;SDS011;2545;50.892;5.740;2023-03-17T14:09:45;4.70;;;2.67;;
5052;SDS011;2545;50.892;5.740;2023-03-17T14:12:21;5.70;;;2.40;;
5052;SDS011;2545;50.892;5.740;2023-03-17T14:15:04;10.50;;;2.87;;
5052;SDS011;2545;50.892;5.740;2023-03-17T14:17:45;9.20;;;2.53;;
5052;SDS011;2545;50.892;5.740;2023-03-17T14:20:19;10.40;;;2.33;;
5052;SDS011;2545;50.892;5.740;2023-03-17T14:22:53;8.20;;;3.13;;
5052;SDS011;2545;50.892;5.740;2023-03-17T14:25:22;4.20;;;2.13;;
5052;SDS011;2545;50.892;5.740;2023-03-17T14:27:53;5.10;;;2.10;;
5052;SDS011;2545;50.892;5.740;2023-03-17T14:30:21;8.47;;;2.00;;
5052;SDS011;2545;50.892;5.740;2023-03-17T14:32:50;7.77;;;2.30;;
5052;SDS011;2545;50.892;5.740;2023-03-17T14:35:22;3.30;;;1.87;;
5052;SDS011;2545;50.892;5.740;2023-03-17T14:37:47;15.50;;;2.83;;
5052;SDS011;2545;50.892;5.740;2023-03-17T14:40:26;4.93;;;2.57;;
5052;SDS011;2545;50.892;5.740;2023-03-17T14:42:53;5.40;;;2.40;;
5052;SDS011;2545;50.892;5.740;2023-03-17T14:45:20;10.00;;;2.57;;
5052;SDS011;2545;50.892;5.740;2023-03-17T14:48:04;9.10;;;2.10;;
5052;SDS011;2545;50.892;5.740;2023-03-17T14:50:30;5.60;;;2.10;;
5052;SDS011;2545;50.892;5.740;2023-03-17T14:52:57;4.00;;;2.50;;
5052;SDS011;2545;50.892;5.740;2023-03-17T14:55:28;4.60;;;2.23;;
5052;SDS011;2545;50.892;5.740;2023-03-17T14:58:08;5.47;;;2.17;;
5052;SDS011;2545;50.892;5.740;2023-03-17T15:00:45;3.97;;;2.30;;
5052;SDS011;2545;50.892;5.740;2023-03-17T15:03:17;5.37;;;2.10;;
5052;SDS011;2545;50.892;5.740;2023-03-17T15:05:45;5.17;;;1.87;;
5052;SDS011;2545;50.892;5.740;2023-03-17T15:10:58;4.73;;;2.17;;
5052;SDS011;2545;50.892;5.740;2023-03-17T15:13:25;4.73;;;2.33;;
5052;SDS011;2545;50.892;5.740;2023-03-17T15:15:52;5.63;;;1.80;;
5052;SDS011;2545;50.892;5.740;2023-03-17T15:18:17;5.40;;;2.50;;
5052;SDS011;2545;50.892;5.740;2023-03-17T15:20:47;6.20;;;2.47;;
5052;SDS011;2545;50.892;5.740;2023-03-17T15:23:20;5.37;;;2.90;;
5052;SDS011;2545;50.892;5.740;2023-03-17T15:25:55;4.57;;;2.20;;
5052;SDS011;2545;50.892;5.740;2023-03-17T15:28:22;6.60;;;2.60;;
5052;SDS011;2545;50.892;5.740;2023-03-17T15:30:50;3.37;;;1.90;;
5052;SDS011;2545;50.892;5.740;2023-03-17T15:33:35;8.00;;;2.70;;
5052;SDS011;2545;50.892;5.740;2023-03-17T15:36:03;5.33;;;2.80;;
5052;SDS011;2545;50.892;5.740;2023-03-17T15:38:29;7.43;;;2.40;;
5052;SDS011;2545;50.892;5.740;2023-03-17T15:40:54;4.03;;;2.10;;
5052;SDS011;2545;50.892;5.740;2023-03-17T15:43:20;4.60;;;2.13;;
5052;SDS011;2545;50.892;5.740;2023-03-17T15:45:45;6.20;;;2.17;;
5052;SDS011;2545;50.892;5.740;2023-03-17T15:48:22;6.83;;;2.63;;
5052;SDS011;2545;50.892;5.740;2023-03-17T15:50:51;2.27;;;2.00;;
5052;SDS011;2545;50.892;5.740;2023-03-17T15:53:17;5.00;;;2.73;;
5052;SDS011;2545;50.892;5.740;2023-03-17T15:55:43;5.30;;;2.63;;
5052;SDS011;2545;50.892;5.740;2023-03-17T15:58:08;13.30;;;2.60;;
5052;SDS011;2545;50.892;5.740;2023-03-17T16:00:34;5.80;;;2.90;;
5052;SDS011;2545;50.892;5.740;2023-03-17T16:03:04;5.23;;;2.47;;
5052;SDS011;2545;50.892;5.740;2023-03-17T16:05:40;18.40;;;2.33;;
5052;SDS011;2545;50.892;5.740;2023-03-17T16:08:09;8.20;;;2.53;;
5052;SDS011;2545;50.892;5.740;2023-03-17T16:10:37;3.50;;;2.20;;
5052;SDS011;2545;50.892;5.740;2023-03-17T16:13:03;8.67;;;2.60;;
5052;SDS011;2545;50.892;5.740;2023-03-17T16:15:30;4.43;;;2.20;;
5052;SDS011;2545;50.892;5.740;2023-03-17T16:18:00;6.73;;;2.20;;
5052;SDS011;2545;50.892;5.740;2023-03-17T16:23:03;8.50;;;2.27;;
5052;SDS011;2545;50.892;5.740;2023-03-17T16:25:32;5.20;;;2.47;;
5052;SDS011;2545;50.892;5.740;2023-03-17T16:27:58;5.60;;;2.80;;
5052;SDS011;2545;50.892;5.740;2023-03-17T16:30:26;12.60;;;2.40;;
5052;SDS011;2545;50.892;5.740;2023-03-17T16:32:55;5.03;;;2.67;;
5052;SDS011;2545;50.892;5.740;2023-03-17T16:35:24;6.97;;;2.50;;
5052;SDS011;2545;50.892;5.740;2023-03-17T16:37:50;9.43;;;2.40;;
5052;SDS011;2545;50.892;5.740;2023-03-17T16:42:44;9.10;;;2.90;;
5052;SDS011;2545;50.892;5.740;2023-03-17T16:47:50;8.13;;;3.00;;
5052;SDS011;2545;50.892;5.740;2023-03-17T16:50:16;6.47;;;3.63;;
5052;SDS011;2545;50.892;5.740;2023-03-17T16:52:43;10.80;;;3.10;;
5052;SDS011;2545;50.892;5.740;2023-03-17T16:55:09;6.83;;;2.83;;
5052;SDS011;2545;50.892;5.740;2023-03-17T16:57:35;4.60;;;2.20;;
5052;SDS011;2545;50.892;5.740;2023-03-17T17:00:02;10.57;;;3.10;;
5052;SDS011;2545;50.892;5.740;2023-03-17T17:02:29;5.20;;;2.83;;